createdAt,value
2023-02-22T00:01:35.739Z,6.50
2023-02-22T00:07:01.185Z,6.10
2023-02-22T00:12:22.929Z,6.47
2023-02-22T00:17:45.144Z,5.90
2023-02-22T00:23:09.325Z,6.10
2023-02-22T00:28:31.049Z,6.93
2023-02-22T00:33:52.723Z,6.53
2023-02-22T00:39:14.581Z,6.90
2023-02-22T00:44:36.281Z,6.72
2023-02-22T00:49:58.019Z,6.50
2023-02-22T00:55:26.435Z,7.05
2023-02-22T01:00:48.787Z,6.97
2023-02-22T01:06:10.530Z,6.70
2023-02-22T01:11:32.234Z,6.57
2023-02-22T01:16:55.210Z,7.30
2023-02-22T01:22:16.981Z,7.15
2023-02-22T01:27:38.954Z,7.20
2023-02-22T01:33:02.329Z,7.13
2023-02-22T01:38:24.003Z,7.57
2023-02-22T01:43:45.857Z,7.70
2023-02-22T01:49:09.744Z,6.75
2023-02-22T01:54:35.940Z,6.25
2023-02-22T02:00:09.771Z,6.75
2023-02-22T02:05:34.195Z,6.20
2023-02-22T02:10:57.991Z,6.25
2023-02-22T02:16:21.471Z,6.47
2023-02-22T02:22:09.308Z,5.97
2023-02-22T02:27:50.903Z,6.93
2023-02-22T02:33:29.565Z,6.73
2023-02-22T02:39:19.474Z,6.13
2023-02-22T02:44:48.618Z,6.43
2023-02-22T02:50:16.065Z,7.00
2023-02-22T02:55:37.877Z,7.57
2023-02-22T03:01:04.359Z,6.90
2023-02-22T03:06:47.923Z,8.40
2023-02-22T03:12:27.617Z,8.23
2023-02-22T03:18:17.719Z,8.10
2023-02-22T03:23:59.369Z,7.88
2023-02-22T03:29:24.626Z,7.30
2023-02-22T03:34:53.008Z,8.40
2023-02-22T03:40:25.901Z,7.85
2023-02-22T03:45:50.536Z,7.55
2023-02-22T03:51:17.365Z,7.40
2023-02-22T03:56:49.976Z,7.43
2023-02-22T04:02:11.697Z,7.47
2023-02-22T04:07:33.449Z,7.47
2023-02-22T04:12:55.181Z,7.10
2023-02-22T04:18:16.870Z,6.70
2023-02-22T04:23:38.548Z,6.90
2023-02-22T04:29:00.246Z,7.53
2023-02-22T04:34:21.964Z,6.60
2023-02-22T04:39:43.719Z,7.05
2023-02-22T04:45:07.973Z,6.57
2023-02-22T04:50:29.750Z,6.38
2023-02-22T04:55:51.462Z,6.90
2023-02-22T05:01:14.631Z,6.87
2023-02-22T05:06:36.553Z,6.20
2023-02-22T05:11:58.212Z,6.75
2023-02-22T05:17:19.884Z,6.80
2023-02-22T05:22:41.552Z,6.03
2023-02-22T05:28:08.802Z,7.80
2023-02-22T05:33:30.516Z,6.90
2023-02-22T05:38:52.196Z,7.43
2023-02-22T05:44:13.999Z,6.83
2023-02-22T05:49:35.668Z,6.60
2023-02-22T05:54:57.480Z,6.47
2023-02-22T06:00:23.120Z,7.10
2023-02-22T06:05:44.813Z,6.93
2023-02-22T06:11:06.579Z,6.70
2023-02-22T06:16:28.307Z,7.00
2023-02-22T06:21:59.875Z,7.00
2023-02-22T06:27:21.551Z,7.40
2023-02-22T06:32:43.301Z,7.10
2023-02-22T06:38:04.990Z,7.53
2023-02-22T06:43:26.695Z,7.03
2023-02-22T06:48:49.985Z,7.10
2023-02-22T06:54:11.852Z,7.45
2023-02-22T06:59:33.532Z,7.50
2023-02-22T07:04:55.241Z,6.57
2023-02-22T07:10:24.690Z,7.70
2023-02-22T07:15:46.459Z,8.80
2023-02-22T07:21:08.127Z,7.87
2023-02-22T07:26:29.901Z,7.57
2023-02-22T07:31:51.704Z,7.87
2023-02-22T07:37:13.454Z,7.67
2023-02-22T07:43:08.426Z,8.05
2023-02-22T07:48:31.442Z,7.87
2023-02-22T07:53:53.187Z,7.73
2023-02-22T07:59:16.334Z,8.40
2023-02-22T08:04:39.357Z,7.53
2023-02-22T08:10:01.111Z,7.47
2023-02-22T08:15:23.550Z,8.10
2023-02-22T08:20:47.321Z,7.50
2023-02-22T08:26:15.467Z,7.27
2023-02-22T08:31:37.237Z,8.03
2023-02-22T08:36:59.042Z,7.65
2023-02-22T08:42:20.757Z,8.07
2023-02-22T08:47:43.206Z,7.75
2023-02-22T08:53:05.717Z,8.07
2023-02-22T08:58:27.454Z,8.82
2023-02-22T09:03:49.203Z,8.40
2023-02-22T09:09:10.976Z,8.80
2023-02-22T09:14:32.664Z,9.02
2023-02-22T09:19:54.723Z,8.95
2023-02-22T09:25:20.374Z,8.40
2023-02-22T09:30:43.052Z,9.70
2023-02-22T09:36:06.852Z,8.75
2023-02-22T09:41:46.178Z,8.80
2023-02-22T09:47:18.064Z,8.50
2023-02-22T09:52:48.221Z,8.20
2023-02-22T09:58:35.094Z,9.02
2023-02-22T10:04:45.378Z,8.43
2023-02-22T10:10:13.751Z,8.40
2023-02-22T10:15:54.330Z,7.75
2023-02-22T10:21:37.336Z,9.77
2023-02-22T10:27:00.869Z,8.75
2023-02-22T10:32:31.096Z,9.10
2023-02-22T10:37:59.139Z,8.25
2023-02-22T10:43:20.914Z,8.60
2023-02-22T10:48:47.085Z,8.40
2023-02-22T10:54:33.458Z,8.73
2023-02-22T10:59:57.515Z,8.98
2023-02-22T11:05:37.177Z,8.32
2023-02-22T11:11:18.851Z,7.75
2023-02-22T11:16:49.565Z,7.85
2023-02-22T11:22:22.288Z,8.70
2023-02-22T11:27:46.920Z,8.13
2023-02-22T11:33:23.503Z,8.50
2023-02-22T11:38:58.567Z,8.05
2023-02-22T11:44:24.964Z,9.32
2023-02-22T11:49:47.401Z,8.57
2023-02-22T11:55:29.736Z,9.75
2023-02-22T12:01:17.319Z,10.65
2023-02-22T12:07:01.811Z,9.30
2023-02-22T12:12:44.685Z,9.93
2023-02-22T12:18:16.104Z,9.85
2023-02-22T12:23:53.253Z,10.10
2023-02-22T12:29:28.033Z,10.25
2023-02-22T12:34:58.244Z,10.40
2023-02-22T12:40:35.562Z,9.63
2023-02-22T12:46:06.780Z,10.57
2023-02-22T12:51:43.660Z,10.23
2023-02-22T12:57:17.821Z,9.90
2023-02-22T13:03:03.345Z,8.98
2023-02-22T13:08:37.562Z,8.88
2023-02-22T13:14:20.178Z,9.38
2023-02-22T13:19:59.278Z,7.90
2023-02-22T13:25:33.365Z,9.00
2023-02-22T13:31:15.516Z,8.57
2023-02-22T13:36:58.150Z,8.45
2023-02-22T13:42:25.123Z,8.90
2023-02-22T13:48:14.529Z,8.32
2023-02-22T13:53:46.967Z,8.75
2023-02-22T13:59:23.987Z,9.73
2023-02-22T14:04:45.709Z,9.32
2023-02-22T14:10:38.225Z,8.75
2023-02-22T14:16:00.032Z,9.88
2023-02-22T14:21:22.912Z,8.63
2023-02-22T14:27:04.908Z,9.05
2023-02-22T14:32:34.881Z,8.98
2023-02-22T14:37:59.486Z,9.52
2023-02-22T14:43:24.146Z,9.07
2023-02-22T14:48:49.215Z,8.77
2023-02-22T14:54:26.659Z,8.77
2023-02-22T14:59:59.977Z,10.10
2023-02-22T15:05:21.648Z,9.45
2023-02-22T15:10:48.628Z,9.88
2023-02-22T15:16:14.605Z,10.57
2023-02-22T15:21:36.493Z,10.30
2023-02-22T15:27:24.676Z,9.35
2023-02-22T15:33:02.493Z,10.50
2023-02-22T15:38:30.449Z,11.50
2023-02-22T15:44:21.304Z,11.32
2023-02-22T15:49:45.271Z,11.40
2023-02-22T15:55:10.931Z,11.63
2023-02-22T16:00:36.438Z,11.98
2023-02-22T16:05:59.237Z,12.70
2023-02-22T16:11:30.800Z,13.18
2023-02-22T16:17:30.806Z,12.60
2023-02-22T16:22:57.545Z,13.13
2023-02-22T16:28:33.855Z,12.15
2023-02-22T16:33:55.854Z,13.43
2023-02-22T16:39:27.074Z,12.70
2023-02-22T16:44:48.766Z,11.95
2023-02-22T16:50:11.563Z,13.38
2023-02-22T16:55:36.547Z,12.73
2023-02-22T17:00:58.353Z,13.57
2023-02-22T17:06:20.609Z,12.77
2023-02-22T17:11:42.735Z,13.05
2023-02-22T17:17:04.413Z,12.45
2023-02-22T17:22:26.092Z,11.88
2023-02-22T17:27:47.849Z,15.32
2023-02-22T17:33:15.932Z,14.13
2023-02-22T17:38:41.432Z,13.80
2023-02-22T17:44:04.661Z,14.27
2023-02-22T17:49:26.509Z,12.35
2023-02-22T17:54:48.193Z,12.23
2023-02-22T18:00:15.659Z,13.07
2023-02-22T18:05:43.456Z,11.55
2023-02-22T18:11:05.261Z,12.13
2023-02-22T18:16:27.577Z,12.32
2023-02-22T18:21:49.993Z,11.13
2023-02-22T18:27:11.880Z,11.50
2023-02-22T18:32:33.612Z,10.73
2023-02-22T18:37:55.358Z,11.20
2023-02-22T18:43:17.609Z,11.90
2023-02-22T18:48:39.750Z,11.77
2023-02-22T18:54:01.525Z,12.57
2023-02-22T18:59:23.286Z,11.45
2023-02-22T19:04:45.177Z,11.43
2023-02-22T19:10:07.487Z,11.70
2023-02-22T19:15:30.081Z,11.57
2023-02-22T19:20:59.586Z,23.83
2023-02-22T19:26:26.611Z,20.13
2023-02-22T19:31:51.208Z,13.70
2023-02-22T19:37:13.199Z,12.63
2023-02-22T19:42:37.699Z,12.52
2023-02-22T19:47:59.408Z,13.57
2023-02-22T19:53:21.199Z,14.02
2023-02-22T19:58:47.274Z,12.95
2023-02-22T20:04:11.318Z,14.02
2023-02-22T20:09:39.189Z,13.35
2023-02-22T20:15:01.009Z,15.18
2023-02-22T20:20:24.149Z,15.35
2023-02-22T20:25:54.125Z,15.38
2023-02-22T20:31:16.669Z,15.10
2023-02-22T20:36:41.401Z,14.07
2023-02-22T20:42:05.171Z,13.98
2023-02-22T20:47:27.042Z,15.10
2023-02-22T20:52:48.798Z,15.98
2023-02-22T20:58:10.616Z,16.05
2023-02-22T21:03:33.923Z,14.85
2023-02-22T21:08:57.973Z,15.73
2023-02-22T21:14:20.071Z,16.02
2023-02-22T21:19:42.522Z,19.17
2023-02-22T21:25:04.876Z,17.98
2023-02-22T21:30:27.712Z,19.02
2023-02-22T21:35:50.349Z,18.17
2023-02-22T21:41:17.703Z,17.42
2023-02-22T21:46:39.949Z,16.73
2023-02-22T21:52:01.766Z,15.68
2023-02-22T21:57:23.562Z,16.98
2023-02-22T22:02:47.909Z,17.73
2023-02-22T22:08:13.204Z,16.20
2023-02-22T22:13:37.600Z,16.15
2023-02-22T22:18:59.351Z,15.90
2023-02-22T22:24:22.797Z,15.48
2023-02-22T22:29:45.382Z,14.82
2023-02-22T22:35:14.395Z,14.77
2023-02-22T22:40:38.729Z,14.27
2023-02-22T22:46:01.727Z,16.02
2023-02-22T22:51:23.697Z,15.38
2023-02-22T22:56:46.382Z,14.82
2023-02-22T23:02:10.866Z,15.35
2023-02-22T23:07:34.414Z,15.63
2023-02-22T23:12:56.558Z,14.63
2023-02-22T23:18:20.424Z,14.70
2023-02-22T23:23:42.230Z,13.90
2023-02-22T23:29:04.242Z,13.55
2023-02-22T23:34:26.373Z,14.18
2023-02-22T23:39:48.491Z,14.23
2023-02-22T23:45:15.041Z,15.00
2023-02-22T23:50:36.709Z,16.25
2023-02-22T23:56:00.181Z,15.85
